createdAt,value
2023-05-05T00:06:45.172Z,12.30
2023-05-05T00:16:48.358Z,12.70
2023-05-05T00:26:51.586Z,14.20
2023-05-05T00:36:55.032Z,11.90
2023-05-05T00:46:58.670Z,14.60
2023-05-05T00:57:04.708Z,14.10
2023-05-05T01:07:18.895Z,11.80
2023-05-05T01:17:39.635Z,11.90
2023-05-05T01:27:52.031Z,10.40
2023-05-05T01:38:03.124Z,9.40
2023-05-05T01:48:08.344Z,16.10
2023-05-05T01:58:13.899Z,10.80
2023-05-05T02:08:17.620Z,10.30
2023-05-05T02:18:23.172Z,7.30
2023-05-05T02:28:49.243Z,8.60
2023-05-05T02:38:59.203Z,7.20
2023-05-05T02:49:03.671Z,12.80
2023-05-05T02:59:15.975Z,7.30
2023-05-05T03:09:48.811Z,8.30
2023-05-05T03:19:52.461Z,7.60
2023-05-05T03:29:55.787Z,6.70
2023-05-05T03:40:00.304Z,7.50
2023-05-05T03:50:03.856Z,16.50
2023-05-05T04:00:10.991Z,8.20
2023-05-05T04:10:17.602Z,6.90
2023-05-05T04:20:21.642Z,6.80
2023-05-05T04:30:24.932Z,8.50
2023-05-05T04:40:28.618Z,16.40
2023-05-05T04:50:35.100Z,12.30
2023-05-05T05:00:42.628Z,14.40
2023-05-05T05:11:24.085Z,12.50
2023-05-05T05:21:35.418Z,8.00
2023-05-05T05:31:39.971Z,14.40
2023-05-05T05:41:43.358Z,17.60
2023-05-05T05:51:47.438Z,9.30
2023-05-05T06:01:51.041Z,9.10
2023-05-05T06:11:54.308Z,6.90
2023-05-05T06:21:57.528Z,9.10
2023-05-05T06:32:01.701Z,7.20
2023-05-05T06:42:04.966Z,5.40
2023-05-05T06:52:08.639Z,5.70
2023-05-05T07:02:13.151Z,5.40
2023-05-05T07:12:16.587Z,6.10
2023-05-05T07:22:29.373Z,5.60
2023-05-05T07:42:39.788Z,4.10
2023-05-05T07:52:48.437Z,5.70
2023-05-05T08:02:57.159Z,3.60
2023-05-05T08:13:00.456Z,6.50
2023-05-05T08:23:03.834Z,3.90
2023-05-05T08:33:07.020Z,5.00
2023-05-05T08:43:10.141Z,5.00
2023-05-05T08:53:17.638Z,4.60
2023-05-05T09:03:21.437Z,5.20
2023-05-05T09:24:08.228Z,5.40
2023-05-05T09:34:16.885Z,3.40
2023-05-05T09:44:36.820Z,3.50
2023-05-05T09:54:40.177Z,4.10
2023-05-05T10:04:43.348Z,4.00
2023-05-05T10:14:46.711Z,7.20
2023-05-05T10:25:13.878Z,3.80
2023-05-05T10:35:27.794Z,3.30
2023-05-05T10:45:31.303Z,3.60
2023-05-05T10:55:42.115Z,5.70
2023-05-05T11:06:20.983Z,4.00
2023-05-05T11:16:44.607Z,2.70
2023-05-05T11:26:52.405Z,4.30
2023-05-05T11:37:02.972Z,4.10
2023-05-05T11:47:06.270Z,3.20
2023-05-05T11:57:10.238Z,4.40
2023-05-05T12:07:21.568Z,3.70
2023-05-05T12:17:24.860Z,2.80
2023-05-05T12:27:29.000Z,5.40
2023-05-05T12:37:32.632Z,5.30
2023-05-05T12:47:37.006Z,3.10
2023-05-05T12:58:00.620Z,2.40
2023-05-05T13:08:04.065Z,4.00
2023-05-05T13:18:07.260Z,3.70
2023-05-05T13:28:10.543Z,3.50
2023-05-05T13:38:13.782Z,4.70
2023-05-05T13:48:16.972Z,3.40
2023-05-05T13:58:20.094Z,4.50
2023-05-05T14:08:23.218Z,4.10
2023-05-05T14:18:26.497Z,2.80
2023-05-05T14:28:29.708Z,4.10
2023-05-05T14:38:33.061Z,3.40
2023-05-05T14:48:36.320Z,5.70
2023-05-05T14:58:39.660Z,3.50
2023-05-05T15:08:42.792Z,3.70
2023-05-05T15:18:46.321Z,3.20
2023-05-05T15:28:50.393Z,2.90
2023-05-05T15:38:53.749Z,3.90
2023-05-05T15:48:56.880Z,4.20
2023-05-05T15:59:00.016Z,2.80
2023-05-05T16:09:03.968Z,4.00
2023-05-05T16:19:07.257Z,4.40
2023-05-05T16:29:10.776Z,3.70
2023-05-05T16:39:14.115Z,7.40
2023-05-05T16:49:17.308Z,11.60
2023-05-05T16:59:20.726Z,6.00
2023-05-05T17:09:25.122Z,7.60
2023-05-05T17:19:28.739Z,5.30
2023-05-05T17:29:32.903Z,8.50
2023-05-05T17:39:36.460Z,12.00
2023-05-05T17:49:40.623Z,10.80
2023-05-05T17:59:44.192Z,16.70
2023-05-05T18:09:47.609Z,12.30
2023-05-05T18:19:50.833Z,9.30
2023-05-05T18:29:56.496Z,14.40
2023-05-05T18:39:59.750Z,13.20
2023-05-05T18:50:05.571Z,14.80
2023-05-05T19:00:10.221Z,28.50
2023-05-05T19:10:13.435Z,24.30
2023-05-05T19:20:19.048Z,13.20
2023-05-05T19:30:23.194Z,18.40
2023-05-05T19:40:26.574Z,24.80
2023-05-05T19:50:30.880Z,17.70
2023-05-05T20:00:39.923Z,20.40
2023-05-05T20:10:45.010Z,24.40
2023-05-05T20:21:00.187Z,14.10
2023-05-05T20:31:07.903Z,18.10
2023-05-05T20:41:27.349Z,19.40
2023-05-05T20:51:40.421Z,24.00
2023-05-05T21:01:46.786Z,13.30
2023-05-05T21:11:57.392Z,15.60
2023-05-05T21:22:02.435Z,19.50
2023-05-05T21:32:08.206Z,16.20
2023-05-05T21:42:11.380Z,15.30
2023-05-05T21:52:14.429Z,24.50
2023-05-05T22:02:17.564Z,11.40
2023-05-05T22:12:20.888Z,12.60
2023-05-05T22:22:24.110Z,9.00
2023-05-05T22:32:27.396Z,9.20
2023-05-05T22:42:31.110Z,13.30
2023-05-05T22:52:34.300Z,11.20
2023-05-05T23:02:38.379Z,12.50
2023-05-05T23:12:41.731Z,11.90
2023-05-05T23:22:44.940Z,15.90
2023-05-05T23:32:48.148Z,10.00
2023-05-05T23:42:51.241Z,12.70
2023-05-05T23:52:54.308Z,9.30
